Dallas Plt, Maine
Current Conditions -  °F | °C
As of 11:52 PM on Wednesday 22 Oct 2014 (Local Time) from KBML Reporting Station
Overcast Overcast  
Wind Chill: 40°   Ceiling: 1400
Heat Index: 45°   Visibility: 9mi
Dew Point: 43°   Wind: 10mph
Humidity: 93%   Direction: 360°N
Pressure: 30.06"   Gusts: NA
Location:  44.9631°N, 70.6504°W
Report Text: KBML 230352Z AUTO 36009KT 9SM OVC014 07/06 A3006 RMK AO2 RAB08E21 SLP188 P0000 T00720061
Loading
Personal Weather Stations






























Interactive Weather Map
Tropical Storm Tracking
New forecast layout! Learn more

10-Day Weather Forecast

Advertisements
Track Severe Weather on mobile